Dades meteomassalio
Diari Summary for Marc 3, 2017 Units:  Metric    English   Both
« Previous Day
Next Day »
Diari Semanal Mensual Anual Personalitzat
  Maxima: Minima: Mijana:
Temperatura: 18.5 °C 2.2 °C 9.9 °C
Rosada: 9.8 °C 1.0 °C 5.6 °C
Humitat: 93 % 44 % 77 %
Velocitat del vent: 57.4 km/h 0.0 km/h 13.8 km/h
Racha vent: 57.4 km/h - -
Vent:- - SSE
Pressio: 1016.8 hPa 998.5 hPa -
Pluja: 20.1 mm    
Historical Graphs
 
 
Tabular Data for Marc 3, 2017
Time Temperature Dew Point Pressure Wind Wind Speed Wind Gust Humidity Rainfall Rate (Hourly) solar Conditions
00:01 7.1 °C 5.1 °C 1016.8 hPa Calm     87 % 0.0 mm 0.0 W/m2 CLR
00:06 7.1 °C 5.1 °C 1016.8 hPa Calm     87 % 0.0 mm 0.0 W/m2 CLR
00:11 6.9 °C 4.9 °C 1016.8 hPa Calm     87 % 0.0 mm 0.0 W/m2 CLR
00:16 6.8 °C 4.8 °C 1016.8 hPa Calm     87 % 0.0 mm 0.0 W/m2 CLR
00:21 6.7 °C 4.7 °C 1016.8 hPa Calm     87 % 0.0 mm 0.0 W/m2 CLR
00:26 6.6 °C 4.8 °C 1016.8 hPa Calm     88 % 0.0 mm 0.0 W/m2 CLR
00:31 6.5 °C 4.7 °C 1016.8 hPa Calm     88 % 0.0 mm 0.0 W/m2 CLR
00:36 6.4 °C 4.6 °C 1016.8 hPa Calm     88 % 0.0 mm 0.0 W/m2 CLR
00:41 6.3 °C 4.5 °C 1016.5 hPa Calm     88 % 0.0 mm 0.0 W/m2 CLR
00:46 6.3 °C 4.4 °C 1016.5 hPa Calm     88 % 0.0 mm 0.0 W/m2 CLR
00:51 6.2 °C 4.6 °C 1016.5 hPa Calm     89 % 0.0 mm 0.0 W/m2 CLR
00:56 6.2 °C 4.5 °C 1016.5 hPa Calm     89 % 0.0 mm 0.0 W/m2 CLR
01:01 6.1 °C 4.4 °C 1016.5 hPa Calm     89 % 0.0 mm 0.0 W/m2 CLR
01:06 6.0 °C 4.3 °C 1016.5 hPa Calm     89 % 0.0 mm 0.0 W/m2 CLR
01:11 6.0 °C 4.3 °C 1016.1 hPa Calm     89 % 0.0 mm 0.0 W/m2 CLR
01:16 5.9 °C 4.2 °C 1016.1 hPa Calm     89 % 0.0 mm 0.0 W/m2 CLR
01:21 5.8 °C 4.2 °C 1016.1 hPa Calm     89 % 0.0 mm 0.0 W/m2 CLR
01:26 5.7 °C 4.1 °C 1016.1 hPa Calm     89 % 0.0 mm 0.0 W/m2 CLR
01:31 5.7 °C 4.0 °C 1016.1 hPa Calm     89 % 0.0 mm 0.0 W/m2 CLR
01:36 5.6 °C 3.9 °C 1015.8 hPa Calm     89 % 0.0 mm 0.0 W/m2 CLR
01:41 5.4 °C 3.8 °C 1015.8 hPa Calm     89 % 0.0 mm 0.0 W/m2 CLR
01:46 5.3 °C 3.7 °C 1015.8 hPa Calm     89 % 0.0 mm 0.0 W/m2 CLR
01:51 5.3 °C 3.8 °C 1015.8 hPa Calm     90 % 0.0 mm 0.0 W/m2 CLR
01:56 5.3 °C 3.8 °C 1015.5 hPa Calm     90 % 0.0 mm 0.0 W/m2 CLR
02:01 5.3 °C 3.8 °C 1015.5 hPa Calm     90 % 0.0 mm 0.0 W/m2 CLR
02:06 5.2 °C 3.7 °C 1015.5 hPa Calm     90 % 0.0 mm 0.0 W/m2 CLR
02:11 5.1 °C 3.6 °C 1015.5 hPa Calm     90 % 0.0 mm 0.0 W/m2 CLR
02:16 5.1 °C 3.6 °C 1015.5 hPa Calm     90 % 0.0 mm 0.0 W/m2 CLR
02:21 4.9 °C 3.4 °C 1015.1 hPa Calm     90 % 0.0 mm 0.0 W/m2 CLR
02:26 4.9 °C 3.4 °C 1015.1 hPa Calm     90 % 0.0 mm 0.0 W/m2 CLR
02:31 4.8 °C 3.3 °C 1015.1 hPa Calm     90 % 0.0 mm 0.0 W/m2 CLR
02:36 4.8 °C 3.3 °C 1015.1 hPa Calm     90 % 0.0 mm 0.0 W/m2 CLR
02:41 4.7 °C 3.2 °C 1015.1 hPa Calm     90 % 0.0 mm 0.0 W/m2 CLR
02:46 4.7 °C 3.2 °C 1014.8 hPa Calm     90 % 0.0 mm 0.0 W/m2 CLR
02:51 4.6 °C 3.1 °C 1014.8 hPa Calm     90 % 0.0 mm 0.0 W/m2 CLR
02:56 4.6 °C 3.1 °C 1014.8 hPa Calm     90 % 0.0 mm 0.0 W/m2 CLR
03:01 4.6 °C 3.2 °C 1014.8 hPa Calm     91 % 0.0 mm 0.0 W/m2 CLR
03:06 4.5 °C 3.0 °C 1014.8 hPa Calm     90 % 0.0 mm 0.0 W/m2 CLR
03:11 4.4 °C 2.9 °C 1014.4 hPa Calm     90 % 0.0 mm 0.0 W/m2 CLR
03:16 4.3 °C 2.8 °C 1014.4 hPa Calm     90 % 0.0 mm 0.0 W/m2 CLR
03:21 4.2 °C 2.7 °C 1014.4 hPa Calm     90 % 0.0 mm 0.0 W/m2 CLR
03:26 4.1 °C 2.6 °C 1014.4 hPa Calm     90 % 0.0 mm 0.0 W/m2 CLR
03:31 4.0 °C 2.5 °C 1014.4 hPa Calm     90 % 0.0 mm 0.0 W/m2 CLR
03:36 3.9 °C 2.4 °C 1014.4 hPa Calm     90 % 0.0 mm 0.0 W/m2 CLR
03:41 3.9 °C 2.4 °C 1014.1 hPa Calm     90 % 0.0 mm 0.0 W/m2 CLR
03:46 3.9 °C 2.6 °C 1014.1 hPa Calm     91 % 0.0 mm 0.0 W/m2 CLR
03:51 3.8 °C 2.5 °C 1013.8 hPa Calm     91 % 0.0 mm 0.0 W/m2 CLR
03:56 3.7 °C 2.4 °C 1014.1 hPa Calm     91 % 0.0 mm 0.0 W/m2 CLR
04:01 3.7 °C 2.4 °C 1013.8 hPa Calm     91 % 0.0 mm 0.0 W/m2 CLR
04:06 3.7 °C 2.3 °C 1013.8 hPa Calm     91 % 0.0 mm 0.0 W/m2 CLR
04:11 3.6 °C 2.3 °C 1013.8 hPa Calm     91 % 0.0 mm 0.0 W/m2 CLR
04:16 3.5 °C 2.2 °C 1013.4 hPa Calm     91 % 0.0 mm 0.0 W/m2 CLR
04:21 3.4 °C 2.1 °C 1013.4 hPa Calm     91 % 0.0 mm 0.0 W/m2 CLR
04:26 3.4 °C 2.1 °C 1013.4 hPa Calm     91 % 0.0 mm 0.0 W/m2 CLR
04:31 3.5 °C 2.2 °C 1013.4 hPa Calm     91 % 0.0 mm 0.0 W/m2 CLR
04:36 3.6 °C 2.2 °C 1013.4 hPa Calm     91 % 0.0 mm 0.0 W/m2 CLR
04:41 3.6 °C 2.4 °C 1013.4 hPa Calm     92 % 0.0 mm 0.0 W/m2 CLR
04:42 3.6 °C 2.4 °C 1013.4 hPa Calm     92 % 0.0 mm 0.0 W/m2 CLR
04:47 3.6 °C 2.2 °C 1013.4 hPa Calm     91 % 0.0 mm 0.0 W/m2 CLR
04:52 3.4 °C 2.1 °C 1013.1 hPa Calm     91 % 0.0 mm 0.0 W/m2 CLR
04:57 3.3 °C 1.9 °C 1013.1 hPa Calm     91 % 0.0 mm 0.0 W/m2 CLR
05:02 3.2 °C 1.8 °C 1012.8 hPa Calm     91 % 0.0 mm 0.0 W/m2 CLR
05:07 3.1 °C 1.8 °C 1012.8 hPa Calm     91 % 0.0 mm 0.0 W/m2 CLR
05:12 3.0 °C 1.7 °C 1012.8 hPa Calm     91 % 0.0 mm 0.0 W/m2 CLR
05:17 2.9 °C 1.6 °C 1012.8 hPa Calm     91 % 0.0 mm 0.0 W/m2 CLR
05:22 2.8 °C 1.5 °C 1012.8 hPa Calm     91 % 0.0 mm 0.0 W/m2 CLR
05:27 2.9 °C 1.6 °C 1012.8 hPa Calm     91 % 0.0 mm 0.0 W/m2 CLR
05:32 2.8 °C 1.5 °C 1012.8 hPa Calm     91 % 0.0 mm 0.0 W/m2 CLR
05:37 2.9 °C 1.7 °C 1012.8 hPa Calm     92 % 0.0 mm 0.0 W/m2 CLR
05:42 2.9 °C 1.7 °C 1012.4 hPa Calm     92 % 0.0 mm 0.0 W/m2 CLR
05:47 2.8 °C 1.7 °C 1012.8 hPa Calm     92 % 0.0 mm 0.0 W/m2 CLR
05:52 2.7 °C 1.6 °C 1012.8 hPa Calm     92 % 0.0 mm 0.0 W/m2 CLR
05:57 2.7 °C 1.5 °C 1012.4 hPa Calm     92 % 0.0 mm 0.0 W/m2 CLR
06:02 2.7 °C 1.6 °C 1012.4 hPa Calm     92 % 0.0 mm 0.0 W/m2 CLR
06:08 2.8 °C 1.6 °C 1012.4 hPa Calm     92 % 0.0 mm 0.0 W/m2 CLR
06:13 2.8 °C 1.6 °C 1012.4 hPa Calm     92 % 0.0 mm 0.0 W/m2 CLR
06:18 2.8 °C 1.6 °C 1012.4 hPa Calm     92 % 0.0 mm 0.0 W/m2 CLR
06:23 2.7 °C 1.5 °C 1012.4 hPa Calm     92 % 0.0 mm 0.0 W/m2 CLR
06:28 2.6 °C 1.4 °C 1012.4 hPa Calm     92 % 0.0 mm 0.0 W/m2 CLR
06:33 2.6 °C 1.4 °C 1012.4 hPa Calm     92 % 0.0 mm 0.0 W/m2 CLR
06:38 2.7 °C 1.5 °C 1012.4 hPa Calm     92 % 0.0 mm 0.0 W/m2 CLR
06:43 2.6 °C 1.4 °C 1012.4 hPa Calm     92 % 0.0 mm 0.0 W/m2 CLR
06:48 2.4 °C 1.2 °C 1012.1 hPa Calm     92 % 0.0 mm 0.0 W/m2 CLR
06:53 2.4 °C 1.2 °C 1012.1 hPa Calm     92 % 0.0 mm 0.0 W/m2 CLR
06:54 2.4 °C 1.2 °C 1012.1 hPa Calm     92 % 0.0 mm 0.0 W/m2 CLR
06:59 2.4 °C 1.3 °C 1012.1 hPa Calm     92 % 0.0 mm 0.0 W/m2 CLR
07:04 2.5 °C 1.3 °C 1012.1 hPa Calm     92 % 0.0 mm 0.0 W/m2 CLR
07:09 2.5 °C 1.3 °C 1012.1 hPa Calm     92 % 0.0 mm 0.0 W/m2 CLR
07:14 2.4 °C 1.2 °C 1011.7 hPa Calm     92 % 0.0 mm 0.0 W/m2 CLR
07:19 2.3 °C 1.2 °C 1011.7 hPa Calm     92 % 0.0 mm 0.0 W/m2 CLR
07:24 2.3 °C 1.1 °C 1011.7 hPa Calm     92 % 0.0 mm 0.0 W/m2 OVC
07:29 2.2 °C 1.1 °C 1011.7 hPa Calm     92 % 0.0 mm 0.0 W/m2 OVC
07:34 2.2 °C 1.0 °C 1011.7 hPa Calm     92 % 0.0 mm 7.0 W/m2 OVC
07:39 2.2 °C 1.1 °C 1012.1 hPa Calm     92 % 0.0 mm 11.0 W/m2 BKN
07:44 2.3 °C 1.1 °C 1011.7 hPa Calm     92 % 0.0 mm 12.0 W/m2 BKN
07:49 2.5 °C 1.5 °C 1011.7 hPa Calm     93 % 0.0 mm 16.0 W/m2 BKN
07:54 2.7 °C 1.7 °C 1011.7 hPa Calm     93 % 0.0 mm 19.0 W/m2 BKN
07:59 2.8 °C 1.8 °C 1011.7 hPa Calm     93 % 0.0 mm 26.0 W/m2 BKN
08:04 3.0 °C 2.0 °C 1011.7 hPa Calm     93 % 0.0 mm 30.0 W/m2 BKN
08:09 2.9 °C 1.8 °C 1011.7 hPa Calm     92 % 0.0 mm 25.0 W/m2 BKN
08:15 3.0 °C 1.8 °C 1011.4 hPa Calm     92 % 0.0 mm 28.0 W/m2 BKN
08:20 3.0 °C 1.8 °C 1011.4 hPa Calm     92 % 0.0 mm 47.0 W/m2 SCT
08:25 3.2 °C 2.0 °C 1011.4 hPa Calm     92 % 0.0 mm 39.0 W/m2 BKN
08:30 3.3 °C 2.2 °C 1011.4 hPa Calm     92 % 0.0 mm 91.0 W/m2 FEW
08:35 3.6 °C 2.4 °C 1011.4 hPa Calm     92 % 0.0 mm 120.0 W/m2 FEW
08:40 3.9 °C 2.7 °C 1011.1 hPa Calm     92 % 0.0 mm 142.0 W/m2 CLR
08:45 4.3 °C 3.2 °C 1011.1 hPa Calm     92 % 0.0 mm 155.0 W/m2 CLR
08:50 4.8 °C 3.7 °C 1011.1 hPa Calm     92 % 0.0 mm 146.0 W/m2 CLR
08:55 5.4 °C 4.2 °C 1011.1 hPa Calm     92 % 0.0 mm 195.0 W/m2 CLR
09:00 5.9 °C 4.6 °C 1011.1 hPa Calm     91 % 0.0 mm 209.0 W/m2 CLR
09:05 6.2 °C 4.6 °C 1010.7 hPa Calm     89 % 0.0 mm 221.0 W/m2 CLR
09:10 6.6 °C 4.9 °C 1010.7 hPa Calm     89 % 0.0 mm 241.0 W/m2 CLR
09:15 7.3 °C 5.9 °C 1010.7 hPa Calm     91 % 0.0 mm 257.0 W/m2 CLR
09:20 8.2 °C 6.8 °C 1010.4 hPa Calm     91 % 0.0 mm 265.0 W/m2 CLR
09:25 9.2 °C 7.7 °C 1010.4 hPa Calm     90 % 0.0 mm 285.0 W/m2 CLR
09:30 10.3 °C 8.1 °C 1010.4 hPa Calm     86 % 0.0 mm 294.0 W/m2 CLR
09:35 11.0 °C 8.2 °C 1010.0 hPa ESE 6.4 km/h 6.4 km/h 83 % 0.0 mm 315.0 W/m2 CLR
09:40 11.6 °C 8.6 °C 1010.0 hPa ESE 5.6 km/h 5.6 km/h 82 % 0.0 mm 329.0 W/m2 CLR
09:45 12.2 °C 9.1 °C 1010.0 hPa SE 13.0 km/h 13.0 km/h 81 % 0.0 mm 341.0 W/m2 CLR
09:50 12.8 °C 9.3 °C 1010.0 hPa SE 16.7 km/h 16.7 km/h 79 % 0.0 mm 357.0 W/m2 CLR
09:55 13.4 °C 9.4 °C 1010.0 hPa ESE 18.5 km/h 18.5 km/h 77 % 0.0 mm 373.0 W/m2 CLR
10:00 13.8 °C 9.6 °C 1009.7 hPa SE 12.9 km/h 12.9 km/h 76 % 0.0 mm 387.0 W/m2 CLR
10:05 14.1 °C 9.6 °C 1009.7 hPa ESE 13.0 km/h 13.0 km/h 74 % 0.0 mm 403.0 W/m2 CLR
10:10 14.3 °C 9.6 °C 1009.7 hPa East 24.1 km/h 24.1 km/h 73 % 0.0 mm 417.0 W/m2 CLR
10:15 14.2 °C 9.4 °C 1009.7 hPa SSE 27.4 km/h 27.4 km/h 73 % 0.0 mm 420.0 W/m2 CLR
10:20 13.9 °C 9.3 °C 1009.4 hPa ESE 33.3 km/h 33.3 km/h 74 % 0.0 mm 441.0 W/m2 CLR
10:25 13.9 °C 9.6 °C 1009.4 hPa SE 31.5 km/h 31.5 km/h 75 % 0.0 mm 450.0 W/m2 CLR
10:30 13.8 °C 9.4 °C 1009.4 hPa ESE 33.8 km/h 33.8 km/h 75 % 0.0 mm 445.0 W/m2 CLR
10:35 13.8 °C 9.5 °C 1009.4 hPa SE 35.4 km/h 35.4 km/h 75 % 0.0 mm 459.0 W/m2 CLR
10:40 13.8 °C 9.4 °C 1009.0 hPa SE 37.0 km/h 37.0 km/h 75 % 0.0 mm 475.0 W/m2 CLR
10:45 13.8 °C 9.4 °C 1009.0 hPa SE 33.3 km/h 33.3 km/h 75 % 0.0 mm 506.0 W/m2 CLR
10:50 13.7 °C 9.5 °C 1009.0 hPa SE 35.2 km/h 35.2 km/h 76 % 0.0 mm 513.0 W/m2 CLR
10:55 13.7 °C 9.6 °C 1009.0 hPa ESE 35.2 km/h 35.2 km/h 76 % 0.0 mm 527.0 W/m2 CLR
11:00 13.7 °C 9.4 °C 1009.0 hPa SE 31.5 km/h 31.5 km/h 75 % 0.0 mm 555.0 W/m2 CLR
11:05 14.0 °C 9.6 °C 1008.7 hPa East 29.0 km/h 29.0 km/h 75 % 0.0 mm 461.0 W/m2 CLR
11:10 14.1 °C 9.7 °C 1008.4 hPa ESE 24.1 km/h 24.1 km/h 75 % 0.0 mm 459.0 W/m2 CLR
11:15 14.3 °C 9.6 °C 1008.4 hPa SSE 29.0 km/h 29.0 km/h 73 % 0.0 mm 338.0 W/m2 CLR
11:20 14.8 °C 9.6 °C 1008.4 hPa SE 25.9 km/h 25.9 km/h 71 % 0.0 mm 381.0 W/m2 CLR
11:25 15.0 °C 9.3 °C 1008.4 hPa SE 24.1 km/h 24.1 km/h 69 % 0.0 mm 503.0 W/m2 CLR
11:30 15.5 °C 9.8 °C 1008.4 hPa SE 22.2 km/h 22.2 km/h 69 % 0.0 mm 527.0 W/m2 CLR
11:35 15.7 °C 9.2 °C 1008.4 hPa SE 29.0 km/h 29.0 km/h 65 % 0.0 mm 506.0 W/m2 CLR
11:40 15.6 °C 9.0 °C 1008.0 hPa South 33.3 km/h 33.3 km/h 65 % 0.0 mm 466.0 W/m2 CLR
11:45 15.4 °C 9.1 °C 1008.0 hPa SE 24.1 km/h 24.1 km/h 66 % 0.0 mm 582.0 W/m2 CLR
11:50 15.4 °C 9.3 °C 1008.0 hPa SSE 25.9 km/h 25.9 km/h 67 % 0.0 mm 603.0 W/m2 CLR
11:55 15.6 °C 9.5 °C 1007.7 hPa SE 24.1 km/h 24.1 km/h 67 % 0.0 mm 613.0 W/m2 CLR
12:00 15.9 °C 9.6 °C 1007.7 hPa SE 22.5 km/h 22.5 km/h 66 % 0.0 mm 548.0 W/m2 CLR
12:05 16.2 °C 9.1 °C 1007.3 hPa SE 29.6 km/h 29.6 km/h 63 % 0.0 mm 555.0 W/m2 CLR
12:10 16.3 °C 8.7 °C 1007.3 hPa SE 29.6 km/h 29.6 km/h 61 % 0.0 mm 510.0 W/m2 CLR
12:15 16.3 °C 8.5 °C 1007.0 hPa SE 31.5 km/h 31.5 km/h 60 % 0.0 mm 425.0 W/m2 CLR
12:20 16.1 °C 8.3 °C 1006.7 hPa SSE 32.2 km/h 32.2 km/h 60 % 0.0 mm 424.0 W/m2 CLR
12:25 16.1 °C 8.6 °C 1006.3 hPa SE 33.3 km/h 33.3 km/h 61 % 0.0 mm 582.0 W/m2 CLR
12:30 16.0 °C 8.2 °C 1006.3 hPa SE 42.6 km/h 42.6 km/h 60 % 0.0 mm 468.0 W/m2 CLR
12:35 16.1 °C 8.1 °C 1006.3 hPa SE 33.3 km/h 33.3 km/h 59 % 0.0 mm 374.0 W/m2 CLR
12:36 16.1 °C 8.1 °C 1006.0 hPa SSE 37.0 km/h 37.0 km/h 59 % 0.0 mm 357.0 W/m2 CLR
12:41 15.9 °C 8.4 °C 1006.0 hPa SSE 27.8 km/h 27.8 km/h 61 % 0.0 mm 441.0 W/m2 CLR
12:46 15.9 °C 8.6 °C 1005.6 hPa SE 25.9 km/h 25.9 km/h 62 % 0.0 mm 485.0 W/m2 CLR
12:51 15.9 °C 8.4 °C 1005.6 hPa SE 31.5 km/h 31.5 km/h 61 % 0.0 mm 503.0 W/m2 CLR
12:56 16.2 °C 8.4 °C 1005.3 hPa SE 27.8 km/h 27.8 km/h 60 % 0.0 mm 613.0 W/m2 CLR
13:01 16.3 °C 8.2 °C 1005.0 hPa SE 27.8 km/h 27.8 km/h 59 % 0.0 mm 429.0 W/m2 CLR
13:06 16.6 °C 8.3 °C 1005.0 hPa SE 20.4 km/h 20.4 km/h 58 % 0.0 mm 652.0 W/m2 CLR
13:11 16.7 °C 8.2 °C 1004.6 hPa East 22.2 km/h 22.2 km/h 57 % 0.0 mm 610.0 W/m2 CLR
13:16 17.0 °C 8.4 °C 1004.6 hPa SE 16.7 km/h 16.7 km/h 57 % 0.0 mm 568.0 W/m2 CLR
13:21 17.4 °C 8.3 °C 1004.6 hPa SE 17.7 km/h 17.7 km/h 55 % 0.0 mm 613.0 W/m2 CLR
13:26 17.6 °C 7.8 °C 1004.6 hPa SSE 22.2 km/h 22.2 km/h 53 % 0.0 mm 605.0 W/m2 CLR
13:31 18.0 °C 7.7 °C 1004.3 hPa SSE 25.9 km/h 25.9 km/h 51 % 0.0 mm 543.0 W/m2 CLR
13:36 18.3 °C 7.7 °C 1004.3 hPa South 20.4 km/h 20.4 km/h 50 % 0.0 mm 520.0 W/m2 CLR
13:41 18.5 °C 6.9 °C 1004.3 hPa SSW 22.2 km/h 22.2 km/h 47 % 0.0 mm 561.0 W/m2 CLR
13:46 18.4 °C 6.6 °C 1004.6 hPa SSW 29.6 km/h 29.6 km/h 46 % 0.0 mm 461.0 W/m2 CLR
13:51 17.9 °C 5.4 °C 1004.6 hPa SSW 42.6 km/h 42.6 km/h 44 % 0.0 mm 489.0 W/m2 CLR
13:56 17.7 °C 6.2 °C 1004.3 hPa South 20.4 km/h 20.4 km/h 47 % 0.0 mm 452.0 W/m2 CLR
14:01 17.7 °C 5.3 °C 1003.9 hPa SSW 31.5 km/h 31.5 km/h 44 % 0.0 mm 568.0 W/m2 CLR
14:06 17.6 °C 5.8 °C 1003.9 hPa SSW 27.8 km/h 27.8 km/h 46 % 0.0 mm 538.0 W/m2 CLR
14:11 17.4 °C 5.3 °C 1003.6 hPa South 37.0 km/h 37.0 km/h 45 % 0.0 mm 540.0 W/m2 CLR
14:16 17.2 °C 5.2 °C 1003.6 hPa SSW 42.6 km/h 42.6 km/h 45 % 0.0 mm 548.0 W/m2 CLR
14:21 17.3 °C 5.2 °C 1003.6 hPa SSE 37.0 km/h 37.0 km/h 45 % 0.0 mm 527.0 W/m2 CLR
14:26 17.3 °C 5.2 °C 1003.3 hPa SSW 40.7 km/h 40.7 km/h 45 % 0.0 mm 520.0 W/m2 CLR
14:31 17.1 °C 5.4 °C 1003.3 hPa South 22.2 km/h 22.2 km/h 46 % 0.0 mm 506.0 W/m2 CLR
14:36 17.3 °C 5.8 °C 1002.9 hPa SSE 20.4 km/h 20.4 km/h 47 % 0.0 mm 552.0 W/m2 CLR
14:41 17.3 °C 5.9 °C 1002.9 hPa SE 22.2 km/h 22.2 km/h 47 % 0.0 mm 550.0 W/m2 CLR
14:46 17.4 °C 5.7 °C 1002.9 hPa South 20.4 km/h 20.4 km/h 46 % 0.0 mm 464.0 W/m2 CLR
14:51 17.2 °C 5.8 °C 1002.9 hPa SSE 25.9 km/h 25.9 km/h 47 % 0.0 mm 487.0 W/m2 CLR
14:56 16.8 °C 7.4 °C 1002.9 hPa SE 25.9 km/h 25.9 km/h 54 % 0.0 mm 490.0 W/m2 CLR
15:01 16.5 °C 7.2 °C 1002.6 hPa SE 20.4 km/h 20.4 km/h 54 % 0.0 mm 490.0 W/m2 CLR
15:06 16.6 °C 7.5 °C 1002.6 hPa SSE 22.2 km/h 22.2 km/h 55 % 0.0 mm 487.0 W/m2 CLR
15:11 16.3 °C 7.8 °C 1002.6 hPa ESE 29.6 km/h 29.6 km/h 57 % 0.0 mm 434.0 W/m2 CLR
15:16 16.1 °C 7.8 °C 1002.6 hPa ESE 20.9 km/h 20.9 km/h 58 % 0.0 mm 359.0 W/m2 CLR
15:21 15.9 °C 7.9 °C 1002.3 hPa East 16.1 km/h 16.1 km/h 59 % 0.0 mm 399.0 W/m2 CLR
15:26 16.0 °C 7.7 °C 1002.3 hPa SE 14.8 km/h 14.8 km/h 58 % 0.0 mm 343.0 W/m2 CLR
15:31 16.2 °C 7.9 °C 1002.6 hPa SSE 13.0 km/h 13.0 km/h 58 % 0.0 mm 422.0 W/m2 CLR
15:36 16.9 °C 5.8 °C 1002.6 hPa SSW 29.0 km/h 29.0 km/h 48 % 0.0 mm 455.0 W/m2 CLR
15:41 17.3 °C 4.9 °C 1002.6 hPa South 32.2 km/h 32.2 km/h 44 % 0.0 mm 367.0 W/m2 CLR
15:47 17.1 °C 4.7 °C 1002.6 hPa SSW 27.4 km/h 27.4 km/h 44 % 0.0 mm 262.0 W/m2 CLR
15:52 17.0 °C 5.3 °C 1002.6 hPa South 20.4 km/h 20.4 km/h 46 % 0.0 mm 227.0 W/m2 CLR
15:57 16.7 °C 5.3 °C 1002.6 hPa South 31.5 km/h 31.5 km/h 47 % 0.0 mm 209.0 W/m2 CLR
16:02 16.4 °C 5.4 °C 1002.6 hPa SSE 24.1 km/h 24.1 km/h 48 % 0.0 mm 214.0 W/m2 CLR
16:07 16.3 °C 5.8 °C 1002.6 hPa SSE 27.8 km/h 27.8 km/h 50 % 0.0 mm 223.0 W/m2 CLR
16:12 16.2 °C 5.7 °C 1002.6 hPa SSE 29.6 km/h 29.6 km/h 50 % 0.0 mm 207.0 W/m2 CLR
16:17 16.1 °C 5.9 °C 1002.6 hPa South 29.6 km/h 29.6 km/h 51 % 0.0 mm 218.0 W/m2 CLR
16:22 16.0 °C 5.8 °C 1002.6 hPa SE 33.8 km/h 33.8 km/h 51 % 0.0 mm 229.0 W/m2 CLR
16:27 16.0 °C 6.2 °C 1002.3 hPa SE 24.1 km/h 24.1 km/h 52 % 0.0 mm 227.0 W/m2 CLR
16:32 15.9 °C 6.1 °C 1002.3 hPa SSE 38.9 km/h 38.9 km/h 52 % 0.0 mm 216.0 W/m2 CLR
16:37 16.1 °C 6.2 °C 1002.3 hPa SE 24.1 km/h 24.1 km/h 52 % 0.0 mm 207.0 W/m2 CLR
16:38 16.1 °C 6.2 °C 1001.9 hPa SE 24.1 km/h 24.1 km/h 52 % 0.0 mm 200.0 W/m2 CLR
16:43 16.1 °C 5.9 °C 1001.9 hPa SSE 25.9 km/h 25.9 km/h 51 % 0.0 mm 179.0 W/m2 CLR
16:48 16.0 °C 5.8 °C 1001.6 hPa SSE 29.6 km/h 29.6 km/h 51 % 0.0 mm 174.0 W/m2 CLR
16:53 15.9 °C 5.5 °C 1001.6 hPa South 37.0 km/h 37.0 km/h 50 % 0.0 mm 130.0 W/m2 CLR
16:58 15.9 °C 5.4 °C 1001.6 hPa SSE 20.4 km/h 20.4 km/h 50 % 0.0 mm 165.0 W/m2 CLR
17:03 15.9 °C 6.3 °C 1001.2 hPa SE 20.4 km/h 20.4 km/h 53 % 0.0 mm 178.0 W/m2 CLR
17:08 15.7 °C 6.1 °C 1001.2 hPa ESE 18.5 km/h 18.5 km/h 53 % 0.0 mm 199.0 W/m2 CLR
17:13 15.4 °C 6.7 °C 1000.9 hPa SE 27.8 km/h 27.8 km/h 56 % 0.0 mm 171.0 W/m2 CLR
17:18 15.3 °C 7.1 °C 1000.9 hPa SE 16.7 km/h 16.7 km/h 58 % 0.0 mm 134.0 W/m2 CLR
17:23 15.1 °C 6.8 °C 1000.9 hPa SE 25.7 km/h 25.7 km/h 58 % 0.0 mm 107.0 W/m2 CLR
17:28 14.9 °C 6.9 °C 1000.9 hPa SSE 13.0 km/h 13.0 km/h 59 % 0.0 mm 86.0 W/m2 CLR
17:33 14.6 °C 7.2 °C 1000.6 hPa SSE 31.5 km/h 31.5 km/h 61 % 0.0 mm 70.0 W/m2 CLR
17:38 14.5 °C 7.1 °C 1000.2 hPa SSE 18.5 km/h 18.5 km/h 61 % 0.0 mm 58.0 W/m2 FEW
17:43 14.4 °C 7.2 °C 1000.6 hPa South 18.5 km/h 18.5 km/h 62 % 0.0 mm 47.0 W/m2 SCT
17:48 14.3 °C 7.3 °C 1000.6 hPa SSE 18.5 km/h 18.5 km/h 63 % 0.0 mm 54.0 W/m2 SCT
17:53 14.3 °C 7.3 °C 1000.6 hPa SE 24.1 km/h 24.1 km/h 63 % 0.0 mm 72.0 W/m2 FEW
17:58 14.2 °C 7.5 °C 1000.6 hPa SSE 18.5 km/h 18.5 km/h 64 % 0.0 mm 76.0 W/m2 FEW
18:03 14.1 °C 7.3 °C 1000.2 hPa SE 27.8 km/h 27.8 km/h 64 % 0.0 mm 65.0 W/m2 SCT
18:08 13.9 °C 7.4 °C 1000.2 hPa SE 19.3 km/h 19.3 km/h 65 % 0.0 mm 44.0 W/m2 BKN
18:13 13.9 °C 7.6 °C 1000.2 hPa SE 18.5 km/h 18.5 km/h 66 % 0.0 mm 42.0 W/m2 BKN
18:18 13.6 °C 7.8 °C 999.9 hPa SSE 18.5 km/h 18.5 km/h 68 % 0.0 mm 30.0 W/m2 BKN
18:23 13.7 °C 7.2 °C 999.9 hPa South 31.5 km/h 31.5 km/h 65 % 0.0 mm 18.0 W/m2 BKN
18:28 13.6 °C 7.4 °C 999.9 hPa South 29.6 km/h 29.6 km/h 66 % 0.0 mm 12.0 W/m2 BKN
18:33 13.4 °C 7.4 °C 999.9 hPa SSE 27.4 km/h 27.4 km/h 67 % 0.0 mm 7.0 W/m2 BKN
18:38 13.3 °C 7.3 °C 999.9 hPa SSE 18.5 km/h 18.5 km/h 67 % 0.0 mm 5.0 W/m2 OVC
18:43 13.1 °C 7.3 °C 999.9 hPa SSE 18.5 km/h 18.5 km/h 68 % 0.0 mm 0.0 W/m2 OVC
18:48 13.0 °C 7.2 °C 1000.2 hPa SSE 31.5 km/h 31.5 km/h 68 % 0.0 mm 0.0 W/m2 OVC
18:53 12.9 °C 7.2 °C 999.9 hPa South 29.6 km/h 29.6 km/h 68 % 0.0 mm 0.0 W/m2 OVC
18:58 12.9 °C 7.2 °C 1000.6 hPa SSE 31.5 km/h 31.5 km/h 68 % 0.0 mm 0.0 W/m2 OVC
19:03 12.9 °C 7.2 °C 1000.6 hPa South 27.8 km/h 27.8 km/h 68 % 0.0 mm 0.0 W/m2 CLR
19:08 12.9 °C 7.1 °C 1000.6 hPa South 31.5 km/h 31.5 km/h 68 % 0.0 mm 0.0 W/m2 CLR
19:13 12.9 °C 6.9 °C 1000.6 hPa SSE 25.9 km/h 25.9 km/h 67 % 0.0 mm 0.0 W/m2 CLR
19:18 12.9 °C 6.9 °C 1000.6 hPa South 27.8 km/h 27.8 km/h 67 % 0.0 mm 0.0 W/m2 CLR
19:23 12.8 °C 7.1 °C 1000.9 hPa South 22.2 km/h 22.2 km/h 68 % 0.0 mm 0.0 W/m2 CLR
19:28 12.8 °C 7.0 °C 1000.9 hPa South 24.1 km/h 24.1 km/h 68 % 0.0 mm 0.0 W/m2 CLR
19:33 12.7 °C 7.2 °C 1000.9 hPa SSE 18.5 km/h 18.5 km/h 69 % 0.0 mm 0.0 W/m2 CLR
19:38 12.5 °C 7.6 °C 1000.6 hPa ESE 25.9 km/h 25.9 km/h 72 % 0.0 mm 0.0 W/m2 CLR
19:43 12.4 °C 7.9 °C 1000.2 hPa SE 24.1 km/h 24.1 km/h 74 % 0.0 mm 0.0 W/m2 CLR
19:48 12.3 °C 7.8 °C 1000.2 hPa SE 11.3 km/h 11.3 km/h 74 % 0.0 mm 0.0 W/m2 CLR
19:53 12.3 °C 7.8 °C 1000.2 hPa South 9.3 km/h 9.3 km/h 74 % 0.0 mm 0.0 W/m2 CLR
19:58 12.3 °C 8.0 °C 999.5 hPa SE 20.4 km/h 20.4 km/h 75 % 0.0 mm 0.0 W/m2 CLR
20:03 12.4 °C 8.1 °C 999.5 hPa ESE 8.0 km/h 8.0 km/h 75 % 0.0 mm 0.0 W/m2 CLR
20:08 12.3 °C 8.2 °C 999.5 hPa East 16.7 km/h 16.7 km/h 76 % 0.0 mm 0.0 W/m2 CLR
20:13 12.1 °C 8.4 °C 999.2 hPa ESE 11.1 km/h 11.1 km/h 78 % 0.0 mm 0.0 W/m2 CLR
20:18 11.9 °C 8.4 °C 999.2 hPa East 9.3 km/h 9.3 km/h 79 % 0.0 mm 0.0 W/m2 CLR
20:23 11.8 °C 8.5 °C 998.9 hPa East 3.7 km/h   80 % 0.0 mm 0.0 W/m2 CLR
20:28 11.7 °C 8.3 °C 999.2 hPa Calm     80 % 0.0 mm 0.0 W/m2 CLR
20:33 11.6 °C 8.3 °C 999.2 hPa Calm     80 % 0.0 mm 0.0 W/m2 CLR
20:38 11.6 °C 8.2 °C 999.2 hPa Calm     80 % 0.0 mm 0.0 W/m2 CLR
20:43 11.6 °C 8.4 °C 999.5 hPa Calm     81 % 0.0 mm 0.0 W/m2 CLR
20:48 11.6 °C 8.4 °C 999.9 hPa Calm     81 % 0.0 mm 0.0 W/m2 CLR
20:54 11.7 °C 8.5 °C 999.9 hPa West 8.0 km/h 8.0 km/h 81 % 0.0 mm 0.0 W/m2 CLR
20:59 11.7 °C 8.6 °C 999.9 hPa Calm     81 % 0.0 mm 0.0 W/m2 CLR
21:04 11.8 °C 8.4 °C 999.9 hPa Calm     80 % 0.0 mm 0.0 W/m2 CLR
21:09 11.8 °C 8.4 °C 999.5 hPa Calm     80 % 0.0 mm 0.0 W/m2 CLR
21:14 11.8 °C 8.6 °C 999.2 hPa Calm     81 % 0.0 mm 0.0 W/m2 CLR
21:19 11.8 °C 8.7 °C 999.2 hPa Calm     81 % 0.0 mm 0.0 W/m2 CLR
21:24 11.9 °C 8.6 °C 999.2 hPa Calm     80 % 0.0 mm 0.0 W/m2 CLR
21:29 11.8 °C 8.5 °C 999.2 hPa Calm     80 % 0.0 mm 0.0 W/m2 CLR
21:34 11.8 °C 8.7 °C 999.2 hPa Calm     81 % 0.0 mm 0.0 W/m2 CLR
21:39 11.8 °C 8.7 °C 998.9 hPa Calm     81 % 0.0 mm 0.0 W/m2 CLR
21:44 11.8 °C 8.8 °C 998.9 hPa Calm     82 % 0.0 mm 0.0 W/m2 CLR
21:49 11.7 °C 8.9 °C 998.5 hPa Calm     83 % 0.0 mm 0.0 W/m2 CLR
21:54 11.5 °C 8.9 °C 998.9 hPa Calm     84 % 0.3 mm 0.0 W/m2 RA
21:59 11.4 °C 8.8 °C 998.9 hPa Calm     84 % 0.3 mm 0.0 W/m2 CLR
22:04 11.3 °C 9.0 °C 999.5 hPa WSW 8.0 km/h 9.2 km/h 86 % 1.0 mm 0.0 W/m2 RA
22:09 10.8 °C 8.9 °C 1000.6 hPa WNW 38.6 km/h 38.6 km/h 88 % 2.8 mm 0.0 W/m2 RA
22:14 8.6 °C 6.0 °C 1000.9 hPa WSW 57.4 km/h 57.4 km/h 84 % 8.9 mm 0.0 W/m2 RA
22:19 7.7 °C 5.7 °C 1000.9 hPa WSW 57.4 km/h 57.4 km/h 87 % 12.2 mm 0.0 W/m2 RA
22:24 7.3 °C 5.7 °C 1000.9 hPa WSW 30.6 km/h 30.6 km/h 89 % 13.7 mm 0.0 W/m2 RA
22:29 7.3 °C 5.8 °C 1000.2 hPa West 27.8 km/h 27.8 km/h 90 % 15.2 mm 0.0 W/m2 RA
22:34 7.3 °C 5.8 °C 999.9 hPa WSW 24.1 km/h 24.1 km/h 90 % 16.0 mm 0.0 W/m2 RA
22:39 7.4 °C 5.8 °C 999.5 hPa WNW 16.7 km/h 16.7 km/h 90 % 16.5 mm 0.0 W/m2 RA
22:44 7.5 °C 5.9 °C 998.9 hPa West 25.9 km/h 25.9 km/h 90 % 16.8 mm 0.0 W/m2 RA
22:49 7.7 °C 5.9 °C 998.9 hPa West 29.6 km/h 29.6 km/h 89 % 16.8 mm 0.0 W/m2 RA
22:54 7.7 °C 6.0 °C 998.9 hPa WNW 35.2 km/h 35.2 km/h 89 % 17.0 mm 0.0 W/m2 RA
22:59 7.7 °C 5.8 °C 998.9 hPa WNW 31.5 km/h 31.5 km/h 88 % 17.5 mm 0.0 W/m2 RA
23:04 7.7 °C 6.0 °C 998.5 hPa West 18.5 km/h 18.5 km/h 89 % 16.5 mm 0.0 W/m2 RA
23:09 7.6 °C 5.9 °C 998.5 hPa WNW 13.0 km/h 13.0 km/h 89 % 14.2 mm 0.0 W/m2 RA
23:14 7.6 °C 6.1 °C 998.5 hPa West 24.1 km/h 24.1 km/h 90 % 8.6 mm 0.0 W/m2 RA
23:19 7.5 °C 5.9 °C 998.9 hPa West 18.5 km/h 18.5 km/h 90 % 6.1 mm 0.0 W/m2 RA
23:24 7.4 °C 5.7 °C 999.2 hPa WSW 24.1 km/h 24.1 km/h 89 % 4.3 mm 0.0 W/m2 CLR
23:29 7.3 °C 5.7 °C 999.5 hPa West 18.5 km/h 18.5 km/h 89 % 3.3 mm 0.0 W/m2 RA
23:34 7.2 °C 5.6 °C 999.5 hPa West 24.1 km/h 24.1 km/h 89 % 2.8 mm 0.0 W/m2 RA
23:39 7.2 °C 5.5 °C 999.5 hPa WNW 31.5 km/h 31.5 km/h 89 % 2.8 mm 0.0 W/m2 RA
23:44 7.1 °C 5.3 °C 999.5 hPa West 31.5 km/h 31.5 km/h 88 % 2.5 mm 0.0 W/m2 RA
23:49 7.1 °C 5.2 °C 998.9 hPa WNW 40.7 km/h 40.7 km/h 88 % 2.5 mm 0.0 W/m2 RA
23:54 7.0 °C 5.2 °C 998.9 hPa West 42.6 km/h 42.6 km/h 88 % 2.8 mm 0.0 W/m2 RA
23:59 6.8 °C 5.0 °C 998.9 hPa WNW 32.2 km/h 32.2 km/h 88 % 2.3 mm 0.0 W/m2
Lo Temps de Massalio
Compliments of Weather Underground - 1.25 mb